sensor_id;sensor_type;location;lat;lon;timestamp;pressure;altitude;pressure_sealevel;temperature;humidity
60371;BME280;48550;40.588;49.684;2023-01-31T00:01:16;101537.91;;;7.25;100.00
60371;BME280;48550;40.588;49.684;2023-01-31T00:03:42;101533.44;;;7.32;100.00
60371;BME280;48550;40.588;49.684;2023-01-31T00:06:17;101530.59;;;7.33;100.00
60371;BME280;48550;40.588;49.684;2023-01-31T00:08:43;101527.28;;;7.31;100.00
60371;BME280;48550;40.588;49.684;2023-01-31T00:11:10;101526.06;;;7.34;100.00
60371;BME280;48550;40.588;49.684;2023-01-31T00:13:36;101514.56;;;7.33;100.00
60371;BME280;48550;40.588;49.684;2023-01-31T00:16:02;101511.69;;;7.35;100.00
60371;BME280;48550;40.588;49.684;2023-01-31T00:18:29;101505.97;;;7.38;100.00
60371;BME280;48550;40.588;49.684;2023-01-31T00:20:54;101497.56;;;7.41;100.00
60371;BME280;48550;40.588;49.684;2023-01-31T00:23:20;101493.38;;;7.53;100.00
60371;BME280;48550;40.588;49.684;2023-01-31T00:25:46;101486.63;;;7.57;100.00
60371;BME280;48550;40.588;49.684;2023-01-31T00:28:11;101481.94;;;7.59;100.00
60371;BME280;48550;40.588;49.684;2023-01-31T00:30:37;101477.81;;;7.57;100.00
60371;BME280;48550;40.588;49.684;2023-01-31T00:33:03;101482.38;;;7.63;100.00
60371;BME280;48550;40.588;49.684;2023-01-31T00:35:28;101481.69;;;7.82;100.00
60371;BME280;48550;40.588;49.684;2023-01-31T00:37:54;101481.34;;;7.98;100.00
60371;BME280;48550;40.588;49.684;2023-01-31T00:40:20;101478.31;;;8.08;100.00
60371;BME280;48550;40.588;49.684;2023-01-31T00:42:46;101483.38;;;8.24;100.00
60371;BME280;48550;40.588;49.684;2023-01-31T00:45:11;101479.66;;;8.19;100.00
60371;BME280;48550;40.588;49.684;2023-01-31T00:47:37;101485.50;;;8.01;100.00
60371;BME280;48550;40.588;49.684;2023-01-31T00:50:03;101479.59;;;7.78;100.00
60371;BME280;48550;40.588;49.684;2023-01-31T00:52:29;101479.16;;;7.74;100.00
60371;BME280;48550;40.588;49.684;2023-01-31T00:54:55;101475.81;;;7.65;100.00
60371;BME280;48550;40.588;49.684;2023-01-31T00:57:21;101468.91;;;7.50;100.00
60371;BME280;48550;40.588;49.684;2023-01-31T00:59:46;101474.66;;;7.47;100.00
60371;BME280;48550;40.588;49.684;2023-01-31T01:02:12;101473.19;;;7.72;100.00
60371;BME280;48550;40.588;49.684;2023-01-31T01:04:38;101467.78;;;8.00;100.00
60371;BME280;48550;40.588;49.684;2023-01-31T01:07:03;101466.28;;;8.19;100.00
60371;BME280;48550;40.588;49.684;2023-01-31T01:09:30;101464.75;;;8.10;100.00
60371;BME280;48550;40.588;49.684;2023-01-31T01:11:55;101463.88;;;7.96;100.00
60371;BME280;48550;40.588;49.684;2023-01-31T01:14:21;101458.72;;;7.94;100.00
60371;BME280;48550;40.588;49.684;2023-01-31T01:16:47;101464.84;;;7.88;100.00
60371;BME280;48550;40.588;49.684;2023-01-31T01:19:17;101459.91;;;7.85;100.00
60371;BME280;48550;40.588;49.684;2023-01-31T01:21:44;101470.94;;;7.76;100.00
60371;BME280;48550;40.588;49.684;2023-01-31T01:24:17;101460.06;;;7.77;100.00
60371;BME280;48550;40.588;49.684;2023-01-31T01:26:44;101463.81;;;7.55;100.00
60371;BME280;48550;40.588;49.684;2023-01-31T01:29:10;101452.13;;;7.34;100.00
60371;BME280;48550;40.588;49.684;2023-01-31T01:31:38;101439.06;;;7.18;100.00
60371;BME280;48550;40.588;49.684;2023-01-31T01:34:11;101436.72;;;7.09;100.00
60371;BME280;48550;40.588;49.684;2023-01-31T01:36:37;101435.06;;;7.08;100.00
60371;BME280;48550;40.588;49.684;2023-01-31T01:39:05;101440.84;;;7.11;100.00
60371;BME280;48550;40.588;49.684;2023-01-31T01:41:32;101445.31;;;7.04;100.00
60371;BME280;48550;40.588;49.684;2023-01-31T01:43:59;101453.66;;;7.22;100.00
60371;BME280;48550;40.588;49.684;2023-01-31T01:46:31;101457.22;;;7.29;100.00
60371;BME280;48550;40.588;49.684;2023-01-31T01:49:03;101449.22;;;7.29;100.00
60371;BME280;48550;40.588;49.684;2023-01-31T01:51:32;101442.59;;;7.25;100.00
60371;BME280;48550;40.588;49.684;2023-01-31T01:54:00;101424.63;;;7.13;100.00
60371;BME280;48550;40.588;49.684;2023-01-31T01:56:37;101420.69;;;7.09;100.00
60371;BME280;48550;40.588;49.684;2023-01-31T01:59:09;101415.56;;;7.07;100.00
60371;BME280;48550;40.588;49.684;2023-01-31T02:01:38;101414.09;;;7.05;100.00
60371;BME280;48550;40.588;49.684;2023-01-31T02:04:06;101409.59;;;7.05;100.00
60371;BME280;48550;40.588;49.684;2023-01-31T02:06:34;101410.22;;;7.07;100.00
60371;BME280;48550;40.588;49.684;2023-01-31T02:09:00;101406.78;;;7.13;100.00
60371;BME280;48550;40.588;49.684;2023-01-31T02:11:29;101409.34;;;7.28;100.00
60371;BME280;48550;40.588;49.684;2023-01-31T02:14:07;101406.88;;;7.26;100.00
60371;BME280;48550;40.588;49.684;2023-01-31T02:16:34;101413.34;;;7.39;100.00
60371;BME280;48550;40.588;49.684;2023-01-31T02:19:00;101407.50;;;7.28;100.00
60371;BME280;48550;40.588;49.684;2023-01-31T02:21:50;101407.66;;;7.20;100.00
60371;BME280;48550;40.588;49.684;2023-01-31T02:38:07;101403.91;;;7.15;100.00
60371;BME280;48550;40.588;49.684;2023-01-31T02:40:48;101406.78;;;7.13;100.00
60371;BME280;48550;40.588;49.684;2023-01-31T02:43:32;101406.19;;;7.18;100.00
60371;BME280;48550;40.588;49.684;2023-01-31T02:46:24;101399.00;;;7.18;100.00
60371;BME280;48550;40.588;49.684;2023-01-31T02:49:24;101405.84;;;7.27;100.00
60371;BME280;48550;40.588;49.684;2023-01-31T02:52:30;101417.50;;;7.20;100.00
60371;BME280;48550;40.588;49.684;2023-01-31T02:55:12;101405.59;;;7.44;100.00
60371;BME280;48550;40.588;49.684;2023-01-31T02:57:59;101411.00;;;7.29;100.00
60371;BME280;48550;40.588;49.684;2023-01-31T03:00:28;101398.13;;;7.39;100.00
60371;BME280;48550;40.588;49.684;2023-01-31T03:02:56;101389.69;;;7.36;100.00
60371;BME280;48550;40.588;49.684;2023-01-31T03:05:22;101375.28;;;7.30;100.00
60371;BME280;48550;40.588;49.684;2023-01-31T03:07:54;101369.59;;;7.40;100.00
60371;BME280;48550;40.588;49.684;2023-01-31T03:13:14;101381.97;;;7.19;100.00
60371;BME280;48550;40.588;49.684;2023-01-31T03:19:14;101388.09;;;7.13;100.00
60371;BME280;48550;40.588;49.684;2023-01-31T03:22:00;101402.56;;;7.25;100.00
60371;BME280;48550;40.588;49.684;2023-01-31T03:24:29;101400.38;;;7.36;100.00
60371;BME280;48550;40.588;49.684;2023-01-31T03:26:57;101385.88;;;7.45;100.00
60371;BME280;48550;40.588;49.684;2023-01-31T03:29:26;101388.53;;;7.45;100.00
60371;BME280;48550;40.588;49.684;2023-01-31T03:31:58;101381.91;;;7.41;100.00
60371;BME280;48550;40.588;49.684;2023-01-31T03:34:25;101383.28;;;7.58;100.00
60371;BME280;48550;40.588;49.684;2023-01-31T03:36:56;101395.19;;;7.55;100.00
60371;BME280;48550;40.588;49.684;2023-01-31T03:42:18;101388.81;;;7.56;100.00
60371;BME280;48550;40.588;49.684;2023-01-31T03:45:03;101385.56;;;7.61;100.00
60371;BME280;48550;40.588;49.684;2023-01-31T03:47:37;101401.28;;;7.77;100.00
60371;BME280;48550;40.588;49.684;2023-01-31T03:50:25;101410.94;;;7.78;100.00
60371;BME280;48550;40.588;49.684;2023-01-31T03:53:03;101416.28;;;7.78;100.00
60371;BME280;48550;40.588;49.684;2023-01-31T03:55:38;101408.72;;;7.88;100.00
60371;BME280;48550;40.588;49.684;2023-01-31T03:58:07;101401.78;;;8.01;100.00
60371;BME280;48550;40.588;49.684;2023-01-31T04:00:37;101408.16;;;8.00;100.00
60371;BME280;48550;40.588;49.684;2023-01-31T04:03:18;101405.06;;;7.96;100.00
60371;BME280;48550;40.588;49.684;2023-01-31T04:05:45;101411.59;;;7.87;100.00
60371;BME280;48550;40.588;49.684;2023-01-31T04:08:11;101411.00;;;7.91;100.00
60371;BME280;48550;40.588;49.684;2023-01-31T04:10:37;101414.50;;;7.92;100.00
60371;BME280;48550;40.588;49.684;2023-01-31T04:13:02;101413.47;;;7.93;100.00
60371;BME280;48550;40.588;49.684;2023-01-31T04:15:28;101417.00;;;8.00;100.00
60371;BME280;48550;40.588;49.684;2023-01-31T04:17:54;101427.09;;;8.05;100.00
60371;BME280;48550;40.588;49.684;2023-01-31T04:20:19;101433.31;;;8.12;100.00
60371;BME280;48550;40.588;49.684;2023-01-31T04:22:45;101440.84;;;7.95;100.00
60371;BME280;48550;40.588;49.684;2023-01-31T04:25:11;101447.91;;;7.75;100.00
60371;BME280;48550;40.588;49.684;2023-01-31T04:27:36;101452.25;;;7.76;100.00
60371;BME280;48550;40.588;49.684;2023-01-31T04:30:04;101450.97;;;7.72;100.00
60371;BME280;48550;40.588;49.684;2023-01-31T04:32:30;101447.53;;;7.50;100.00
60371;BME280;48550;40.588;49.684;2023-01-31T04:34:56;101451.34;;;7.41;100.00
60371;BME280;48550;40.588;49.684;2023-01-31T04:37:21;101445.19;;;7.40;100.00
60371;BME280;48550;40.588;49.684;2023-01-31T04:39:47;101451.09;;;7.57;100.00
60371;BME280;48550;40.588;49.684;2023-01-31T04:42:13;101455.16;;;7.53;100.00
60371;BME280;48550;40.588;49.684;2023-01-31T04:44:39;101456.81;;;7.54;100.00
60371;BME280;48550;40.588;49.684;2023-01-31T04:47:05;101450.91;;;7.37;100.00
60371;BME280;48550;40.588;49.684;2023-01-31T04:49:31;101457.41;;;7.28;100.00
60371;BME280;48550;40.588;49.684;2023-01-31T04:51:57;101451.47;;;7.05;100.00
60371;BME280;48550;40.588;49.684;2023-01-31T04:54:22;101457.94;;;6.95;100.00
60371;BME280;48550;40.588;49.684;2023-01-31T04:56:48;101450.50;;;6.91;100.00
60371;BME280;48550;40.588;49.684;2023-01-31T04:59:14;101455.97;;;6.83;100.00
60371;BME280;48550;40.588;49.684;2023-01-31T05:01:40;101452.47;;;6.82;100.00
60371;BME280;48550;40.588;49.684;2023-01-31T05:04:07;101449.19;;;6.80;100.00
60371;BME280;48550;40.588;49.684;2023-01-31T05:06:33;101450.63;;;6.83;100.00
60371;BME280;48550;40.588;49.684;2023-01-31T05:08:58;101436.59;;;6.95;100.00
60371;BME280;48550;40.588;49.684;2023-01-31T05:11:28;101438.31;;;7.03;100.00
60371;BME280;48550;40.588;49.684;2023-01-31T05:13:54;101431.69;;;6.99;100.00
60371;BME280;48550;40.588;49.684;2023-01-31T05:16:19;101432.59;;;7.06;100.00
60371;BME280;48550;40.588;49.684;2023-01-31T05:18:45;101427.78;;;7.23;100.00
60371;BME280;48550;40.588;49.684;2023-01-31T05:21:11;101432.53;;;7.49;100.00
60371;BME280;48550;40.588;49.684;2023-01-31T05:23:37;101418.25;;;7.63;100.00
60371;BME280;48550;40.588;49.684;2023-01-31T05:26:03;101426.53;;;7.75;100.00
60371;BME280;48550;40.588;49.684;2023-01-31T05:28:29;101433.19;;;7.85;100.00
60371;BME280;48550;40.588;49.684;2023-01-31T05:31:01;101428.50;;;7.94;100.00
60371;BME280;48550;40.588;49.684;2023-01-31T05:33:27;101423.19;;;8.01;100.00
60371;BME280;48550;40.588;49.684;2023-01-31T05:35:53;101428.34;;;8.09;100.00
60371;BME280;48550;40.588;49.684;2023-01-31T05:38:19;101428.78;;;8.12;100.00
60371;BME280;48550;40.588;49.684;2023-01-31T05:40:45;101430.63;;;8.12;100.00
60371;BME280;48550;40.588;49.684;2023-01-31T05:43:11;101434.56;;;8.16;100.00
60371;BME280;48550;40.588;49.684;2023-01-31T05:45:36;101428.19;;;8.17;100.00
60371;BME280;48550;40.588;49.684;2023-01-31T05:48:02;101430.63;;;8.12;100.00
60371;BME280;48550;40.588;49.684;2023-01-31T05:50:28;101429.41;;;8.14;100.00
60371;BME280;48550;40.588;49.684;2023-01-31T05:52:58;101421.44;;;8.21;100.00
60371;BME280;48550;40.588;49.684;2023-01-31T05:55:25;101416.44;;;8.11;100.00
60371;BME280;48550;40.588;49.684;2023-01-31T05:57:52;101410.84;;;8.00;100.00
60371;BME280;48550;40.588;49.684;2023-01-31T06:00:18;101395.81;;;7.98;100.00
60371;BME280;48550;40.588;49.684;2023-01-31T06:02:44;101394.66;;;8.14;100.00
60371;BME280;48550;40.588;49.684;2023-01-31T06:05:11;101397.44;;;8.34;100.00
60371;BME280;48550;40.588;49.684;2023-01-31T06:07:37;101390.69;;;8.45;100.00
60371;BME280;48550;40.588;49.684;2023-01-31T06:10:04;101396.28;;;8.56;100.00
60371;BME280;48550;40.588;49.684;2023-01-31T06:12:29;101389.47;;;8.60;100.00
60371;BME280;48550;40.588;49.684;2023-01-31T06:14:55;101390.09;;;8.63;100.00
60371;BME280;48550;40.588;49.684;2023-01-31T06:17:21;101389.09;;;8.70;100.00
60371;BME280;48550;40.588;49.684;2023-01-31T06:19:50;101382.09;;;8.76;100.00
60371;BME280;48550;40.588;49.684;2023-01-31T06:22:19;101384.16;;;8.80;100.00
60371;BME280;48550;40.588;49.684;2023-01-31T06:24:45;101381.28;;;8.75;100.00
60371;BME280;48550;40.588;49.684;2023-01-31T06:27:11;101377.34;;;8.78;100.00
60371;BME280;48550;40.588;49.684;2023-01-31T06:29:37;101370.16;;;8.72;100.00
60371;BME280;48550;40.588;49.684;2023-01-31T06:32:03;101364.38;;;8.81;100.00
60371;BME280;48550;40.588;49.684;2023-01-31T06:34:28;101366.44;;;8.86;100.00
60371;BME280;48550;40.588;49.684;2023-01-31T06:36:54;101362.97;;;8.92;100.00
60371;BME280;48550;40.588;49.684;2023-01-31T06:39:20;101374.72;;;9.04;100.00
60371;BME280;48550;40.588;49.684;2023-01-31T06:41:45;101369.97;;;9.06;100.00
60371;BME280;48550;40.588;49.684;2023-01-31T06:44:11;101367.69;;;8.90;100.00
60371;BME280;48550;40.588;49.684;2023-01-31T06:46:37;101366.84;;;8.70;100.00
60371;BME280;48550;40.588;49.684;2023-01-31T06:49:03;101361.88;;;8.47;100.00
60371;BME280;48550;40.588;49.684;2023-01-31T06:51:29;101365.09;;;8.29;100.00
60371;BME280;48550;40.588;49.684;2023-01-31T06:53:54;101362.72;;;8.47;100.00
60371;BME280;48550;40.588;49.684;2023-01-31T06:56:21;101366.44;;;8.59;100.00
60371;BME280;48550;40.588;49.684;2023-01-31T06:58:47;101366.84;;;8.76;100.00
60371;BME280;48550;40.588;49.684;2023-01-31T07:01:13;101371.19;;;8.77;100.00
60371;BME280;48550;40.588;49.684;2023-01-31T07:03:39;101358.19;;;8.54;100.00
60371;BME280;48550;40.588;49.684;2023-01-31T07:06:07;101356.94;;;8.50;100.00
60371;BME280;48550;40.588;49.684;2023-01-31T07:08:33;101354.69;;;8.47;100.00
60371;BME280;48550;40.588;49.684;2023-01-31T07:11:00;101353.47;;;8.56;100.00
60371;BME280;48550;40.588;49.684;2023-01-31T07:13:27;101360.06;;;8.74;100.00
60371;BME280;48550;40.588;49.684;2023-01-31T07:15:53;101350.81;;;8.83;100.00
60371;BME280;48550;40.588;49.684;2023-01-31T07:18:19;101352.84;;;8.87;100.00
60371;BME280;48550;40.588;49.684;2023-01-31T07:20:45;101351.25;;;8.93;100.00
60371;BME280;48550;40.588;49.684;2023-01-31T07:23:10;101348.34;;;9.01;100.00
60371;BME280;48550;40.588;49.684;2023-01-31T07:25:36;101347.50;;;8.87;100.00
60371;BME280;48550;40.588;49.684;2023-01-31T07:28:02;101344.41;;;8.84;100.00
60371;BME280;48550;40.588;49.684;2023-01-31T07:30:28;101341.34;;;8.87;100.00
60371;BME280;48550;40.588;49.684;2023-01-31T07:32:54;101336.38;;;8.77;100.00
60371;BME280;48550;40.588;49.684;2023-01-31T07:35:20;101330.63;;;8.67;100.00
60371;BME280;48550;40.588;49.684;2023-01-31T07:37:46;101330.81;;;8.52;100.00
60371;BME280;48550;40.588;49.684;2023-01-31T07:40:13;101327.31;;;8.65;100.00
60371;BME280;48550;40.588;49.684;2023-01-31T07:42:40;101316.41;;;8.53;100.00
60371;BME280;48550;40.588;49.684;2023-01-31T07:45:07;101304.06;;;8.66;100.00
60371;BME280;48550;40.588;49.684;2023-01-31T07:47:33;101300.16;;;8.62;100.00
60371;BME280;48550;40.588;49.684;2023-01-31T07:49:59;101296.44;;;8.56;100.00
60371;BME280;48550;40.588;49.684;2023-01-31T07:52:25;101286.97;;;8.60;100.00
60371;BME280;48550;40.588;49.684;2023-01-31T07:54:50;101284.91;;;8.75;100.00
60371;BME280;48550;40.588;49.684;2023-01-31T07:57:16;101279.97;;;9.05;100.00
60371;BME280;48550;40.588;49.684;2023-01-31T07:59:45;101276.28;;;9.00;100.00
60371;BME280;48550;40.588;49.684;2023-01-31T08:02:15;101269.66;;;9.15;100.00
60371;BME280;48550;40.588;49.684;2023-01-31T08:04:59;101272.47;;;9.34;100.00
60371;BME280;48550;40.588;49.684;2023-01-31T08:07:26;101251.00;;;9.47;100.00
60371;BME280;48550;40.588;49.684;2023-01-31T08:09:53;101248.06;;;9.62;100.00
60371;BME280;48550;40.588;49.684;2023-01-31T08:12:19;101249.91;;;9.61;100.00
60371;BME280;48550;40.588;49.684;2023-01-31T08:14:44;101246.00;;;9.57;100.00
60371;BME280;48550;40.588;49.684;2023-01-31T08:17:10;101243.38;;;9.44;100.00
60371;BME280;48550;40.588;49.684;2023-01-31T08:19:36;101239.47;;;9.46;100.00
60371;BME280;48550;40.588;49.684;2023-01-31T08:22:03;101235.03;;;9.65;100.00
60371;BME280;48550;40.588;49.684;2023-01-31T08:24:29;101234.44;;;9.63;100.00
60371;BME280;48550;40.588;49.684;2023-01-31T08:26:56;101236.53;;;9.54;100.00
60371;BME280;48550;40.588;49.684;2023-01-31T08:29:22;101233.53;;;9.82;100.00
60371;BME280;48550;40.588;49.684;2023-01-31T08:31:49;101229.69;;;9.72;100.00
60371;BME280;48550;40.588;49.684;2023-01-31T08:34:14;101236.50;;;9.61;100.00
60371;BME280;48550;40.588;49.684;2023-01-31T08:36:40;101237.41;;;9.42;100.00
60371;BME280;48550;40.588;49.684;2023-01-31T08:39:07;101222.44;;;9.28;100.00
60371;BME280;48550;40.588;49.684;2023-01-31T08:41:33;101232.97;;;9.22;100.00
60371;BME280;48550;40.588;49.684;2023-01-31T08:44:00;101217.25;;;9.33;100.00
60371;BME280;48550;40.588;49.684;2023-01-31T08:46:30;101217.03;;;9.41;100.00
60371;BME280;48550;40.588;49.684;2023-01-31T08:48:57;101207.91;;;9.48;100.00
60371;BME280;48550;40.588;49.684;2023-01-31T08:51:23;101205.41;;;9.53;100.00
60371;BME280;48550;40.588;49.684;2023-01-31T08:53:49;101204.84;;;9.45;100.00
60371;BME280;48550;40.588;49.684;2023-01-31T08:56:15;101198.56;;;9.19;100.00
60371;BME280;48550;40.588;49.684;2023-01-31T08:58:42;101194.53;;;8.97;100.00
60371;BME280;48550;40.588;49.684;2023-01-31T09:01:10;101195.97;;;8.86;100.00
60371;BME280;48550;40.588;49.684;2023-01-31T09:03:36;101190.44;;;8.75;100.00
60371;BME280;48550;40.588;49.684;2023-01-31T09:06:05;101184.28;;;8.68;100.00
60371;BME280;48550;40.588;49.684;2023-01-31T09:08:31;101182.88;;;8.45;100.00
60371;BME280;48550;40.588;49.684;2023-01-31T09:10:57;101177.94;;;8.42;100.00
60371;BME280;48550;40.588;49.684;2023-01-31T09:13:25;101180.38;;;8.31;100.00
60371;BME280;48550;40.588;49.684;2023-01-31T09:16:02;101169.25;;;8.27;100.00
60371;BME280;48550;40.588;49.684;2023-01-31T09:18:29;101164.13;;;8.32;100.00
60371;BME280;48550;40.588;49.684;2023-01-31T09:20:55;101166.59;;;8.27;100.00
60371;BME280;48550;40.588;49.684;2023-01-31T09:23:21;101163.09;;;8.26;100.00
60371;BME280;48550;40.588;49.684;2023-01-31T09:25:54;101160.22;;;8.28;100.00
60371;BME280;48550;40.588;49.684;2023-01-31T09:28:21;101147.47;;;8.23;100.00
60371;BME280;48550;40.588;49.684;2023-01-31T09:30:47;101141.72;;;8.33;100.00
60371;BME280;48550;40.588;49.684;2023-01-31T09:33:13;101142.97;;;8.37;100.00
60371;BME280;48550;40.588;49.684;2023-01-31T09:35:39;101135.34;;;8.34;100.00
60371;BME280;48550;40.588;49.684;2023-01-31T09:38:05;101138.03;;;8.34;100.00
60371;BME280;48550;40.588;49.684;2023-01-31T09:40:32;101134.09;;;8.43;100.00
60371;BME280;48550;40.588;49.684;2023-01-31T09:43:01;101118.84;;;8.57;100.00
60371;BME280;48550;40.588;49.684;2023-01-31T09:45:36;101111.63;;;8.64;100.00
60371;BME280;48550;40.588;49.684;2023-01-31T09:48:06;101113.00;;;8.93;100.00
60371;BME280;48550;40.588;49.684;2023-01-31T09:50:52;101099.59;;;9.69;100.00
60371;BME280;48550;40.588;49.684;2023-01-31T09:53:23;101095.28;;;9.62;100.00
60371;BME280;48550;40.588;49.684;2023-01-31T10:09:30;101072.63;;;10.14;100.00
60371;BME280;48550;40.588;49.684;2023-01-31T10:12:23;101074.75;;;10.30;100.00
60371;BME280;48550;40.588;49.684;2023-01-31T10:14:50;101063.28;;;10.23;100.00
60371;BME280;48550;40.588;49.684;2023-01-31T10:17:39;101071.34;;;10.16;100.00
60371;BME280;48550;40.588;49.684;2023-01-31T10:20:09;101075.03;;;9.97;100.00
60371;BME280;48550;40.588;49.684;2023-01-31T10:22:59;101069.16;;;10.07;100.00
60371;BME280;48550;40.588;49.684;2023-01-31T10:25:36;101070.22;;;9.81;100.00
60371;BME280;48550;40.588;49.684;2023-01-31T10:36:17;101066.16;;;9.97;100.00
60371;BME280;48550;40.588;49.684;2023-01-31T10:38:57;101066.50;;;9.82;100.00
60371;BME280;48550;40.588;49.684;2023-01-31T10:44:53;101059.13;;;9.77;100.00
60371;BME280;48550;40.588;49.684;2023-01-31T10:47:23;101055.53;;;10.08;100.00
60371;BME280;48550;40.588;49.684;2023-01-31T10:49:52;101049.47;;;9.95;100.00
60371;BME280;48550;40.588;49.684;2023-01-31T10:52:47;101049.59;;;9.81;100.00
60371;BME280;48550;40.588;49.684;2023-01-31T10:57:47;101045.47;;;10.04;100.00
60371;BME280;48550;40.588;49.684;2023-01-31T11:00:21;101046.59;;;9.96;100.00
60371;BME280;48550;40.588;49.684;2023-01-31T11:02:48;101045.88;;;9.82;100.00
60371;BME280;48550;40.588;49.684;2023-01-31T11:05:19;101036.91;;;9.95;100.00
60371;BME280;48550;40.588;49.684;2023-01-31T11:07:46;101036.25;;;10.00;100.00
60371;BME280;48550;40.588;49.684;2023-01-31T11:10:27;101032.59;;;10.56;100.00
60371;BME280;48550;40.588;49.684;2023-01-31T11:12:57;101038.38;;;10.34;100.00
60371;BME280;48550;40.588;49.684;2023-01-31T11:15:34;101039.56;;;10.20;100.00
60371;BME280;48550;40.588;49.684;2023-01-31T11:18:01;101047.94;;;10.05;100.00
60371;BME280;48550;40.588;49.684;2023-01-31T11:20:35;101037.59;;;10.09;100.00
60371;BME280;48550;40.588;49.684;2023-01-31T11:23:04;101037.00;;;10.07;100.00
60371;BME280;48550;40.588;49.684;2023-01-31T11:25:32;101039.97;;;9.99;100.00
60371;BME280;48550;40.588;49.684;2023-01-31T11:28:01;101046.38;;;9.98;100.00
60371;BME280;48550;40.588;49.684;2023-01-31T11:30:34;101048.22;;;9.97;100.00
60371;BME280;48550;40.588;49.684;2023-01-31T11:33:01;101042.41;;;10.00;100.00
60371;BME280;48550;40.588;49.684;2023-01-31T11:35:32;101033.03;;;9.91;100.00
60371;BME280;48550;40.588;49.684;2023-01-31T11:38:19;101041.28;;;9.90;100.00
60371;BME280;48550;40.588;49.684;2023-01-31T11:40:46;101043.84;;;10.03;100.00
60371;BME280;48550;40.588;49.684;2023-01-31T11:45:45;101035.94;;;10.08;100.00
60371;BME280;48550;40.588;49.684;2023-01-31T11:50:40;101048.53;;;10.07;100.00
60371;BME280;48550;40.588;49.684;2023-01-31T11:53:17;101044.56;;;9.92;100.00
60371;BME280;48550;40.588;49.684;2023-01-31T11:55:45;101043.03;;;9.77;100.00
60371;BME280;48550;40.588;49.684;2023-01-31T11:58:22;101042.22;;;9.77;100.00
60371;BME280;48550;40.588;49.684;2023-01-31T12:01:00;101038.72;;;9.76;100.00
60371;BME280;48550;40.588;49.684;2023-01-31T12:03:28;101039.75;;;9.75;100.00
60371;BME280;48550;40.588;49.684;2023-01-31T12:06:05;101034.78;;;9.79;100.00
60371;BME280;48550;40.588;49.684;2023-01-31T12:08:37;101041.06;;;9.66;100.00
60371;BME280;48550;40.588;49.684;2023-01-31T12:11:28;101025.31;;;9.76;100.00
60371;BME280;48550;40.588;49.684;2023-01-31T12:14:14;101022.50;;;9.65;100.00
60371;BME280;48550;40.588;49.684;2023-01-31T12:16:42;101026.72;;;9.54;100.00
60371;BME280;48550;40.588;49.684;2023-01-31T12:19:16;101032.50;;;9.51;100.00
60371;BME280;48550;40.588;49.684;2023-01-31T12:36:05;101024.63;;;9.56;100.00
60371;BME280;48550;40.588;49.684;2023-01-31T12:41:40;101018.50;;;9.49;100.00
60371;BME280;48550;40.588;49.684;2023-01-31T12:47:45;101014.75;;;9.56;100.00
60371;BME280;48550;40.588;49.684;2023-01-31T12:50:31;101013.63;;;9.71;100.00
60371;BME280;48550;40.588;49.684;2023-01-31T12:55:37;101020.66;;;9.90;100.00
60371;BME280;48550;40.588;49.684;2023-01-31T13:06:08;101022.84;;;9.75;100.00
60371;BME280;48550;40.588;49.684;2023-01-31T13:08:43;101014.69;;;9.63;100.00
60371;BME280;48550;40.588;49.684;2023-01-31T13:11:16;101019.06;;;9.57;100.00
60371;BME280;48550;40.588;49.684;2023-01-31T13:13:47;101017.38;;;9.63;100.00
60371;BME280;48550;40.588;49.684;2023-01-31T13:16:34;101020.19;;;9.75;100.00
60371;BME280;48550;40.588;49.684;2023-01-31T13:19:04;101022.19;;;9.79;100.00
60371;BME280;48550;40.588;49.684;2023-01-31T13:21:33;101013.41;;;9.66;100.00
60371;BME280;48550;40.588;49.684;2023-01-31T13:24:26;101018.22;;;9.32;100.00
60371;BME280;48550;40.588;49.684;2023-01-31T13:29:25;101023.72;;;9.12;100.00
60371;BME280;48550;40.588;49.684;2023-01-31T13:31:58;101024.22;;;8.96;100.00
60371;BME280;48550;40.588;49.684;2023-01-31T13:34:27;101018.66;;;8.91;100.00
60371;BME280;48550;40.588;49.684;2023-01-31T13:37:03;101021.41;;;8.78;100.00
60371;BME280;48550;40.588;49.684;2023-01-31T13:39:42;101017.47;;;8.80;100.00
60371;BME280;48550;40.588;49.684;2023-01-31T13:42:14;101004.06;;;8.87;100.00
60371;BME280;48550;40.588;49.684;2023-01-31T13:44:45;101003.41;;;8.98;100.00
60371;BME280;48550;40.588;49.684;2023-01-31T13:50:20;101009.91;;;8.71;100.00
60371;BME280;48550;40.588;49.684;2023-01-31T13:52:51;100998.41;;;8.64;100.00
60371;BME280;48550;40.588;49.684;2023-01-31T13:55:26;100998.84;;;8.60;100.00
60371;BME280;48550;40.588;49.684;2023-01-31T13:58:05;101003.41;;;8.53;100.00
60371;BME280;48550;40.588;49.684;2023-01-31T14:00:40;101010.41;;;8.48;100.00
60371;BME280;48550;40.588;49.684;2023-01-31T14:03:25;101007.56;;;8.43;100.00
60371;BME280;48550;40.588;49.684;2023-01-31T14:05:59;101006.22;;;8.65;100.00
60371;BME280;48550;40.588;49.684;2023-01-31T14:13:45;101026.75;;;8.78;100.00
60371;BME280;48550;40.588;49.684;2023-01-31T14:16:39;101030.09;;;8.67;100.00
60371;BME280;48550;40.588;49.684;2023-01-31T14:27:19;101037.16;;;8.54;100.00
60371;BME280;48550;40.588;49.684;2023-01-31T14:32:39;101053.16;;;8.68;100.00
60371;BME280;48550;40.588;49.684;2023-01-31T14:40:14;101054.03;;;9.06;100.00
60371;BME280;48550;40.588;49.684;2023-01-31T14:45:31;101050.59;;;8.86;100.00
60371;BME280;48550;40.588;49.684;2023-01-31T14:48:17;101060.94;;;8.76;100.00
60371;BME280;48550;40.588;49.684;2023-01-31T14:58:45;101061.19;;;8.68;100.00